createdAt,value
2023-03-23T15:58:44.157Z,33.60
2023-03-23T16:01:13.900Z,33.60
2023-03-23T16:03:44.270Z,33.80
2023-03-23T16:06:13.513Z,34.00
2023-03-23T16:08:54.904Z,33.70
2023-03-23T16:11:23.602Z,32.70
2023-03-23T16:13:51.583Z,31.90
2023-03-23T16:16:21.034Z,31.30
2023-03-23T16:18:49.267Z,30.80
2023-03-23T16:21:17.215Z,30.30
2023-03-23T16:23:46.518Z,30.00
2023-03-23T16:26:16.405Z,29.70
2023-03-23T16:28:44.713Z,29.50
2023-03-23T16:31:12.828Z,29.30
2023-03-23T16:33:40.854Z,29.10
2023-03-23T16:36:09.277Z,28.90
2023-03-23T16:38:49.992Z,28.60
2023-03-23T16:41:20.439Z,28.50
2023-03-23T16:43:48.405Z,28.30
2023-03-23T16:46:16.360Z,28.20
2023-03-23T16:48:44.394Z,28.10
2023-03-23T16:51:12.484Z,28.10
2023-03-23T16:53:40.477Z,28.00
2023-03-23T16:56:08.423Z,28.00
2023-03-23T16:58:37.771Z,27.90
2023-03-23T17:01:06.609Z,27.90
2023-03-23T17:03:34.689Z,27.80
2023-03-23T17:06:02.906Z,27.60
2023-03-23T17:08:30.972Z,27.50
2023-03-23T17:10:58.963Z,27.40
2023-03-23T17:13:27.957Z,27.40
2023-03-23T17:15:57.625Z,27.30
2023-03-23T17:18:25.903Z,27.20
2023-03-23T17:20:54.515Z,27.00
2023-03-23T17:23:22.467Z,27.00
2023-03-23T17:25:51.175Z,26.90
2023-03-23T17:28:20.845Z,26.80
2023-03-23T17:30:49.376Z,26.70
2023-03-23T17:33:18.682Z,26.60
2023-03-23T17:35:47.352Z,26.50
2023-03-23T17:38:15.677Z,26.40
2023-03-23T17:40:43.658Z,26.30
2023-03-23T17:43:11.636Z,26.30
2023-03-23T17:45:39.622Z,26.20
2023-03-23T17:48:08.144Z,26.10
2023-03-23T17:50:37.899Z,26.10
2023-03-23T17:53:05.993Z,26.00
2023-03-23T17:55:34.069Z,25.90
2023-03-23T17:58:01.998Z,25.80
2023-03-23T18:00:29.963Z,25.80
2023-03-23T18:02:58.064Z,25.70
2023-03-23T18:05:27.909Z,25.60
2023-03-23T18:07:57.248Z,25.50
2023-03-23T18:10:25.317Z,25.50
2023-03-23T18:12:53.299Z,25.50
2023-03-23T18:15:21.266Z,25.40
2023-03-23T18:17:51.170Z,25.40
2023-03-23T18:20:19.292Z,25.30
2023-03-23T18:22:47.946Z,25.30
2023-03-23T18:25:17.403Z,25.20
2023-03-23T18:27:45.471Z,25.20
2023-03-23T18:30:13.527Z,25.20
2023-03-23T18:32:41.860Z,25.10
2023-03-23T18:35:11.082Z,25.10
2023-03-23T18:37:40.366Z,25.00
2023-03-23T18:40:10.856Z,25.00
2023-03-23T18:42:41.288Z,24.90
2023-03-23T18:45:09.743Z,24.90
2023-03-23T18:47:38.686Z,24.80
2023-03-23T18:50:07.368Z,24.80
2023-03-23T18:52:36.135Z,24.80
2023-03-23T18:55:04.821Z,24.80
2023-03-23T18:57:33.017Z,24.70
2023-03-23T19:00:02.345Z,24.70
2023-03-23T19:02:30.443Z,24.70
2023-03-23T19:04:58.558Z,24.70
2023-03-23T19:07:26.500Z,24.60
2023-03-23T19:09:54.482Z,24.60
2023-03-23T19:12:23.263Z,24.60
2023-03-23T19:14:51.960Z,24.50
2023-03-23T19:17:21.337Z,24.50
2023-03-23T19:19:49.425Z,24.50
2023-03-23T19:22:17.391Z,24.50
2023-03-23T19:24:45.410Z,24.50
2023-03-23T19:27:13.592Z,24.40
2023-03-23T19:29:41.716Z,24.40
2023-03-23T19:32:10.525Z,24.40
2023-03-23T19:34:39.967Z,24.40
2023-03-23T19:37:11.117Z,24.40
2023-03-23T19:39:40.468Z,24.30
2023-03-23T19:42:09.832Z,24.30
2023-03-23T19:44:37.962Z,24.20
2023-03-23T19:47:07.219Z,24.20
2023-03-23T19:49:35.520Z,24.20
2023-03-23T19:52:12.251Z,24.20
2023-03-23T19:54:41.620Z,24.20
2023-03-23T19:57:10.046Z,24.10
2023-03-23T19:59:38.341Z,24.10
2023-03-23T20:02:06.522Z,24.00
2023-03-23T20:04:35.913Z,24.00
2023-03-23T20:07:07.473Z,24.00
2023-03-23T20:09:36.140Z,24.00
2023-03-23T20:12:05.087Z,24.00
2023-03-23T20:14:33.132Z,24.00
2023-03-23T20:17:01.703Z,24.00
2023-03-23T20:19:29.677Z,23.90
2023-03-23T20:21:57.622Z,23.90
2023-03-23T20:24:27.061Z,23.90
2023-03-23T20:26:55.583Z,23.90
2023-03-23T20:29:23.855Z,23.80
2023-03-23T20:31:52.237Z,23.80
2023-03-23T20:34:31.455Z,23.80
2023-03-23T20:37:00.282Z,23.80
2023-03-23T20:39:30.720Z,23.80
2023-03-23T20:42:00.492Z,23.80
2023-03-23T20:44:31.279Z,23.80
2023-03-23T20:46:59.727Z,23.70
2023-03-23T20:49:28.634Z,23.70
2023-03-23T20:51:56.582Z,23.70
2023-03-23T20:54:24.689Z,23.70
2023-03-23T20:56:56.147Z,23.70
2023-03-23T20:59:24.483Z,23.70
2023-03-23T21:01:52.459Z,23.70
2023-03-23T21:04:22.098Z,23.70
2023-03-23T21:06:51.861Z,23.70
2023-03-23T21:09:20.318Z,23.70
2023-03-23T21:11:48.434Z,23.70
2023-03-23T21:14:17.786Z,23.70
2023-03-23T21:16:46.428Z,23.70
2023-03-23T21:19:14.449Z,23.70
2023-03-23T21:21:55.561Z,23.60
2023-03-23T21:24:26.503Z,23.60
2023-03-23T21:26:54.748Z,23.60
2023-03-23T21:29:24.420Z,23.60
2023-03-23T21:32:05.268Z,23.60
2023-03-23T21:34:37.046Z,23.60
2023-03-23T21:37:05.088Z,23.50
2023-03-23T21:39:33.712Z,23.50
2023-03-23T21:42:02.884Z,23.40
2023-03-23T21:44:34.839Z,23.40
2023-03-23T21:47:03.152Z,23.40
2023-03-23T21:49:31.678Z,23.40
2023-03-23T21:51:59.665Z,23.30
2023-03-23T21:54:30.172Z,23.30
2023-03-23T21:56:58.878Z,23.30
2023-03-23T21:59:27.267Z,23.20
2023-03-23T22:01:58.256Z,23.20
2023-03-23T22:04:26.403Z,23.20
2023-03-23T22:06:54.348Z,23.20
2023-03-23T22:09:22.320Z,23.10
2023-03-23T22:11:50.534Z,23.10
2023-03-23T22:14:18.510Z,23.00
2023-03-23T22:16:46.862Z,23.00
2023-03-23T22:19:16.605Z,23.00
2023-03-23T22:21:44.593Z,23.00
2023-03-23T22:24:12.562Z,23.00
2023-03-23T22:26:40.603Z,22.90
2023-03-23T22:29:11.198Z,22.90
2023-03-23T22:31:40.112Z,22.90
2023-03-23T22:34:08.156Z,22.90
2023-03-23T22:36:38.894Z,22.90
2023-03-23T22:39:07.238Z,22.90
2023-03-23T22:41:36.947Z,22.80
2023-03-23T22:44:04.965Z,22.80
2023-03-23T22:46:32.950Z,22.80
2023-03-23T22:49:00.960Z,22.80
2023-03-23T22:51:29.269Z,22.70
2023-03-23T22:53:58.796Z,22.80
2023-03-23T22:56:26.968Z,22.70
2023-03-23T22:58:55.330Z,22.70
2023-03-23T23:01:23.998Z,22.70
2023-03-23T23:03:52.143Z,22.70
2023-03-23T23:06:20.838Z,22.70
2023-03-23T23:08:49.308Z,22.70
2023-03-23T23:11:19.830Z,22.60
2023-03-23T23:13:48.245Z,22.70
2023-03-23T23:16:17.990Z,22.60
2023-03-23T23:18:47.517Z,22.60
2023-03-23T23:21:16.620Z,22.60
2023-03-23T23:23:46.429Z,22.60
2023-03-23T23:26:14.854Z,22.50
2023-03-23T23:28:44.668Z,22.50
2023-03-23T23:31:22.682Z,22.50
2023-03-23T23:33:50.769Z,22.50
2023-03-23T23:36:19.344Z,22.50
2023-03-23T23:38:47.301Z,22.50
2023-03-23T23:41:15.332Z,22.50
2023-03-23T23:43:44.718Z,22.50
2023-03-23T23:46:12.961Z,22.40
2023-03-23T23:48:42.007Z,22.40
2023-03-23T23:51:09.967Z,22.40
2023-03-23T23:53:37.912Z,22.40
2023-03-23T23:56:06.639Z,22.40
2023-03-23T23:58:34.569Z,22.30
